Time;durP1;ratioP1;P1;durP2;ratioP2;P2;SDS_P1;SDS_P2;PMS_P1;PMS_P2;Temp;Humidity;BMP_temperature;BMP_pressure;BME280_temperature;BME280_humidity;BME280_pressure;Samples;Min_cycle;Max_cycle;Signal;HPM_P1;HPM_P2
2021/07/31 00:01:12;;;;;;;12.45;5.45;;;;;;;18.11;69.55;99676.28;4947085;29;20028;-75
2021/07/31 00:03:38;;;;;;;8.18;5.07;;;;;;;18.13;69.33;99675.28;4946892;29;20038;-75
2021/07/31 00:06:05;;;;;;;8.50;5.30;;;;;;;18.12;69.87;99670.00;4945765;29;20418;-75
2021/07/31 00:08:31;;;;;;;7.63;5.00;;;;;;;18.11;69.69;99673.63;4948503;29;20131;-77
2021/07/31 00:10:57;;;;;;;15.07;6.03;;;;;;;18.14;69.69;99658.28;4950337;29;20040;-77
2021/07/31 00:13:23;;;;;;;9.18;5.28;;;;;;;18.18;69.30;99656.31;4933021;29;20035;-76
2021/07/31 00:15:49;;;;;;;6.90;5.18;;;;;;;18.15;69.05;99646.66;4948212;29;20047;-77
2021/07/31 00:18:14;;;;;;;17.00;5.78;;;;;;;18.15;69.15;99654.66;4952273;29;20032;-76
2021/07/31 00:20:40;;;;;;;9.85;5.30;;;;;;;18.20;69.59;99657.13;4951267;29;20067;-76
2021/07/31 00:23:06;;;;;;;8.57;4.88;;;;;;;18.17;69.12;99658.13;4951101;29;20044;-76
2021/07/31 00:25:32;;;;;;;11.23;5.43;;;;;;;18.12;70.55;99665.50;4950731;29;20043;-76
2021/07/31 00:27:57;;;;;;;8.30;4.80;;;;;;;18.18;69.39;99659.00;4931557;29;20047;-76
2021/07/31 00:30:24;;;;;;;7.60;4.75;;;;;;;18.23;69.21;99662.28;4951315;29;20062;-77
2021/07/31 00:32:50;;;;;;;9.60;4.95;;;;;;;18.19;69.86;99660.75;4950387;29;20479;-77
2021/07/31 00:35:16;;;;;;;8.60;5.28;;;;;;;18.11;70.05;99669.13;4954339;29;20050;-76
2021/07/31 00:37:41;;;;;;;6.60;4.68;;;;;;;18.14;70.02;99668.13;4949478;29;20039;-76
2021/07/31 00:40:08;;;;;;;9.48;4.85;;;;;;;18.15;69.63;99672.50;4950169;29;20038;-76
2021/07/31 00:42:37;;;;;;;6.30;4.82;;;;;;;18.15;69.51;99678.69;4949771;29;20035;-76
2021/07/31 00:45:03;;;;;;;10.05;4.70;;;;;;;18.23;69.18;99670.31;4929041;29;20070;-76
2021/07/31 00:47:28;;;;;;;6.72;5.07;;;;;;;18.29;68.65;99671.81;4949104;29;20047;-77
2021/07/31 00:49:54;;;;;;;10.23;5.25;;;;;;;18.36;68.20;99671.41;4951799;29;20035;-76
2021/07/31 00:52:19;;;;;;;8.68;4.97;;;;;;;18.39;68.33;99681.94;4948269;28;20134;-76
2021/07/31 00:54:45;;;;;;;9.20;5.55;;;;;;;18.40;67.49;99686.34;4950723;29;20071;-75
2021/07/31 00:57:14;;;;;;;8.13;4.85;;;;;;;18.42;68.02;99688.06;4954617;28;20589;-77
2021/07/31 01:00:00;;;;;;;7.60;4.82;;;;;;;18.47;67.32;99696.69;4950452;28;20090;-76
2021/07/31 01:02:26;;;;;;;65.38;7.45;;;;;;;18.50;67.46;99700.09;4933783;29;20410;-76
2021/07/31 01:04:51;;;;;;;25.17;8.68;;;;;;;18.52;67.41;99702.66;4933087;28;20039;-76
2021/07/31 01:07:16;;;;;;;9.45;5.22;;;;;;;18.63;67.03;99692.31;4952511;28;20027;-76
2021/07/31 01:09:42;;;;;;;9.05;5.18;;;;;;;18.77;66.64;99697.78;4948676;29;20066;-76
2021/07/31 01:12:07;;;;;;;10.10;5.38;;;;;;;18.90;66.00;99687.31;4949313;29;20059;-77
2021/07/31 01:14:33;;;;;;;8.45;4.90;;;;;;;19.01;65.63;99692.06;4949694;29;20043;-76
2021/07/31 01:16:58;;;;;;;6.45;4.70;;;;;;;19.12;65.33;99695.03;4948099;29;20035;-76
2021/07/31 01:19:24;;;;;;;10.73;5.75;;;;;;;19.16;65.07;99693.91;4952056;29;20039;-77
2021/07/31 01:21:50;;;;;;;9.32;5.07;;;;;;;19.20;65.35;99698.16;4933843;29;20055;-77
2021/07/31 01:24:35;;;;;;;11.43;5.50;;;;;;;19.16;64.84;99690.38;4951626;29;20466;-76
2021/07/31 01:27:01;;;;;;;8.73;5.30;;;;;;;19.08;66.06;99692.63;4935056;29;20502;-76
2021/07/31 01:29:27;;;;;;;8.27;5.85;;;;;;;19.00;65.62;99690.34;4950590;29;20036;-76
2021/07/31 01:31:52;;;;;;;9.38;5.85;;;;;;;18.99;65.85;99691.28;4952691;28;20114;-77
2021/07/31 01:34:18;;;;;;;7.97;5.63;;;;;;;18.96;65.52;99691.47;4916101;29;20055;-76
2021/07/31 01:36:45;;;;;;;10.05;5.40;;;;;;;18.99;65.63;99689.50;4949036;29;20031;-77
2021/07/31 01:39:14;;;;;;;7.85;5.20;;;;;;;18.98;65.65;99697.59;4951430;29;20085;-76
2021/07/31 01:41:41;;;;;;;11.88;5.57;;;;;;;18.99;65.91;99696.63;4951342;29;20037;-77
2021/07/31 01:44:07;;;;;;;11.15;5.85;;;;;;;18.99;65.98;99699.31;4931526;29;20035;-77
2021/07/31 01:46:33;;;;;;;7.68;5.18;;;;;;;18.98;65.36;99698.44;4940079;29;20042;-77
2021/07/31 01:48:58;;;;;;;8.38;5.80;;;;;;;18.98;65.67;99689.56;4935555;29;20098;-76
2021/07/31 01:51:26;;;;;;;7.85;4.90;;;;;;;18.94;65.46;99698.69;4937496;28;20487;-77
2021/07/31 01:53:52;;;;;;;10.48;5.55;;;;;;;19.00;65.00;99690.34;4950421;28;20059;-76
2021/07/31 01:56:18;;;;;;;9.95;5.15;;;;;;;19.05;65.14;99686.47;4942375;29;20090;-76
2021/07/31 01:58:43;;;;;;;7.28;4.97;;;;;;;19.10;64.87;99680.91;4936146;29;20043;-77
2021/07/31 02:01:10;;;;;;;6.30;4.80;;;;;;;19.17;65.00;99687.59;4932729;28;20035;-76
2021/07/31 02:03:38;;;;;;;7.38;5.50;;;;;;;19.23;64.63;99684.63;4947268;29;20023;-76
2021/07/31 02:06:22;;;;;;;8.45;5.07;;;;;;;19.27;64.42;99678.13;4948967;29;20050;-77
2021/07/31 02:08:49;;;;;;;7.97;5.25;;;;;;;19.34;64.24;99680.47;4932214;29;20059;-76
2021/07/31 02:11:16;;;;;;;10.93;5.50;;;;;;;19.41;63.75;99690.75;4952722;29;20035;-77
2021/07/31 02:13:42;;;;;;;7.55;4.80;;;;;;;19.46;63.63;99699.34;4932695;29;20157;-76
2021/07/31 02:16:11;;;;;;;9.23;5.63;;;;;;;19.43;63.87;99699.53;4955290;23;20048;-74
2021/07/31 02:18:37;;;;;;;8.43;5.40;;;;;;;19.42;63.36;99705.00;4944930;29;20063;-74
2021/07/31 02:21:05;;;;;;;8.18;5.47;;;;;;;19.41;63.82;99700.56;4945124;29;20035;-74
2021/07/31 02:23:49;;;;;;;8.10;5.53;;;;;;;19.38;63.58;99703.44;4945128;29;20138;-74
2021/07/31 02:26:33;;;;;;;7.88;5.85;;;;;;;19.36;63.49;99703.53;4944813;29;20118;-74
2021/07/31 02:29:02;;;;;;;6.70;5.10;;;;;;;19.36;63.72;99702.63;4941561;29;20063;-74
2021/07/31 02:31:33;;;;;;;6.57;5.55;;;;;;;19.38;63.78;99701.59;4942115;29;20035;-74
2021/07/31 02:33:59;;;;;;;7.93;5.57;;;;;;;19.39;63.85;99700.69;4941232;29;20039;-74
2021/07/31 02:36:27;;;;;;;7.60;5.68;;;;;;;19.34;63.82;99709.91;4942667;28;20091;-74
2021/07/31 02:39:06;;;;;;;7.57;5.13;;;;;;;19.35;64.44;99708.94;4941998;29;20050;-74
2021/07/31 02:41:31;;;;;;;7.53;5.32;;;;;;;19.41;64.24;99701.47;4943626;28;20035;-74
2021/07/31 02:43:59;;;;;;;6.97;5.45;;;;;;;19.48;64.06;99697.47;4940969;29;20391;-74
2021/07/31 02:46:25;;;;;;;7.00;5.20;;;;;;;19.48;63.79;99700.16;4944257;28;20042;-74
2021/07/31 02:48:50;;;;;;;9.85;5.10;;;;;;;19.52;64.08;99702.66;4940246;29;20506;-74
2021/07/31 02:51:18;;;;;;;8.85;5.50;;;;;;;19.55;63.72;99707.84;4948361;28;20034;-74
2021/07/31 02:54:08;;;;;;;9.27;5.30;;;;;;;19.56;64.32;99698.84;4950247;28;20130;-74
2021/07/31 02:56:35;;;;;;;8.05;5.43;;;;;;;19.56;64.20;99706.88;4941887;28;20032;-74
2021/07/31 02:59:03;;;;;;;7.35;5.20;;;;;;;19.54;63.74;99704.28;4940489;29;20043;-74
2021/07/31 03:01:30;;;;;;;9.05;6.28;;;;;;;19.57;63.80;99706.81;4951612;28;20023;-74
2021/07/31 03:03:56;;;;;;;7.50;5.65;;;;;;;19.56;64.25;99712.25;4962232;28;20036;-74
2021/07/31 03:06:22;;;;;;;7.88;5.97;;;;;;;19.60;63.97;99713.81;4944097;28;20109;-74
2021/07/31 03:08:48;;;;;;;8.38;5.93;;;;;;;19.69;63.79;99711.47;4939476;28;20778;-74
2021/07/31 03:11:13;;;;;;;7.47;5.75;;;;;;;19.66;63.38;99717.00;4957423;28;20035;-74
2021/07/31 03:13:39;;;;;;;8.32;5.20;;;;;;;19.58;63.68;99721.06;4948778;28;20023;-74
2021/07/31 03:16:06;;;;;;;7.75;5.63;;;;;;;19.55;63.34;99724.75;4947633;28;20035;-73
2021/07/31 03:18:31;;;;;;;9.23;5.60;;;;;;;19.48;63.72;99718.88;4941405;29;20043;-74
2021/07/31 03:20:59;;;;;;;6.43;4.53;;;;;;;19.47;63.19;99729.69;4942951;29;20035;-73
2021/07/31 03:23:45;;;;;;;6.75;5.00;;;;;;;19.38;63.52;99733.72;4943212;29;20036;-74
2021/07/31 03:26:10;;;;;;;8.60;5.13;;;;;;;19.35;63.41;99733.03;4942444;28;20208;-74
2021/07/31 03:28:36;;;;;;;5.85;4.60;;;;;;;19.34;63.41;99729.50;4944685;29;20027;-74
2021/07/31 03:31:01;;;;;;;5.60;4.50;;;;;;;19.30;63.38;99735.94;4943086;29;20044;-73
2021/07/31 03:33:27;;;;;;;7.40;4.78;;;;;;;19.27;62.95;99734.31;4941582;29;20071;-74
2021/07/31 03:35:54;;;;;;;7.28;4.78;;;;;;;19.34;62.93;99737.53;4943083;29;20071;-74
2021/07/31 03:38:22;;;;;;;6.45;4.55;;;;;;;19.39;62.16;99742.63;4942431;28;20070;-74
2021/07/31 03:40:49;;;;;;;8.63;5.10;;;;;;;19.41;62.14;99743.38;4947981;28;20031;-74
2021/07/31 03:43:17;;;;;;;5.85;4.93;;;;;;;19.36;62.41;99740.09;4952415;28;20509;-74
2021/07/31 03:45:43;;;;;;;5.15;4.28;;;;;;;19.38;62.09;99744.41;4941169;28;20059;-74
2021/07/31 03:48:12;;;;;;;7.35;4.03;;;;;;;19.40;62.18;99744.34;4944691;29;20426;-73
2021/07/31 03:50:41;;;;;;;5.25;4.15;;;;;;;19.41;62.10;99741.59;4945936;28;20039;-74
2021/07/31 03:53:07;;;;;;;6.05;4.50;;;;;;;19.43;61.71;99752.19;4940212;28;20035;-73
2021/07/31 03:55:36;;;;;;;8.07;4.65;;;;;;;19.41;62.23;99748.75;4943241;28;20127;-74
2021/07/31 03:58:04;;;;;;;6.45;4.30;;;;;;;19.35;62.21;99749.09;4950709;28;20031;-74
2021/07/31 04:00:30;;;;;;;7.75;5.03;;;;;;;19.34;62.21;99752.72;4952908;28;20078;-74
2021/07/31 04:03:00;;;;;;;5.85;4.43;;;;;;;19.35;62.24;99739.25;4941692;29;20027;-74
2021/07/31 04:05:25;;;;;;;6.57;5.03;;;;;;;19.33;62.57;99745.63;4948372;28;20042;-73
2021/07/31 04:08:29;;;;;;;8.20;4.35;;;;;;;19.38;62.22;99757.78;4902169;29;20044;-73
2021/07/31 04:11:10;;;;;;;6.63;4.30;;;;;;;19.39;62.49;99769.38;4909953;29;20122;-73
2021/07/31 04:14:01;;;;;;;5.97;4.35;;;;;;;19.42;62.17;99772.75;4934640;29;20047;-74
2021/07/31 04:16:52;;;;;;;6.25;4.18;;;;;;;19.41;62.75;99783.53;4945092;28;20039;-74
2021/07/31 04:19:18;;;;;;;7.30;4.18;;;;;;;19.39;62.79;99778.28;4953938;28;20501;-74
2021/07/31 04:21:45;;;;;;;6.72;4.60;;;;;;;19.33;62.66;99789.28;4950805;28;20529;-74
2021/07/31 04:24:13;;;;;;;7.38;4.63;;;;;;;19.24;62.78;99787.97;4947156;28;20031;-74
2021/07/31 04:26:38;;;;;;;7.35;4.88;;;;;;;19.29;62.96;99792.22;4946883;29;20053;-74
2021/07/31 04:29:03;;;;;;;10.02;5.53;;;;;;;19.24;63.61;99798.69;4945095;28;20068;-73
2021/07/31 04:31:29;;;;;;;7.05;4.97;;;;;;;19.14;64.37;99797.44;4947556;28;20133;-73
2021/07/31 04:33:54;;;;;;;8.25;4.82;;;;;;;19.20;63.51;99794.47;4946511;28;20075;-74
2021/07/31 04:36:20;;;;;;;6.78;4.05;;;;;;;19.27;63.22;99794.97;4954115;28;20094;-74
2021/07/31 04:38:45;;;;;;;6.75;4.78;;;;;;;19.28;63.24;99788.66;4945196;29;20036;-73
2021/07/31 04:41:10;;;;;;;5.95;4.40;;;;;;;19.27;63.60;99793.16;4946234;28;20054;-73
2021/07/31 04:43:36;;;;;;;5.93;4.53;;;;;;;19.34;63.31;99787.50;4944753;29;20042;-73
2021/07/31 04:46:01;;;;;;;8.35;4.32;;;;;;;19.38;62.99;99786.38;4951421;28;20047;-73
2021/07/31 04:48:27;;;;;;;6.90;3.83;;;;;;;19.42;62.95;99787.94;4957669;28;20035;-74
2021/07/31 04:51:00;;;;;;;8.02;4.45;;;;;;;19.46;62.98;99786.81;4944957;28;20063;-74
2021/07/31 04:53:27;;;;;;;7.22;4.50;;;;;;;19.46;62.47;99792.16;4947053;29;20042;-73
2021/07/31 04:55:53;;;;;;;8.43;4.43;;;;;;;19.46;62.48;99793.03;4947044;29;20039;-73
2021/07/31 04:58:19;;;;;;;6.88;4.28;;;;;;;19.52;62.41;99790.97;4944654;29;20087;-74
2021/07/31 05:00:46;;;;;;;7.38;4.60;;;;;;;19.51;63.14;99795.44;4946231;28;20572;-73
2021/07/31 05:03:12;;;;;;;6.15;4.15;;;;;;;19.50;63.13;99801.75;4951728;28;20517;-73
2021/07/31 05:05:37;;;;;;;6.93;4.25;;;;;;;19.57;62.84;99804.94;4946402;28;20043;-73
2021/07/31 05:08:03;;;;;;;5.38;4.30;;;;;;;19.57;63.35;99808.53;4946007;29;20031;-73
2021/07/31 05:10:28;;;;;;;8.60;5.00;;;;;;;19.60;63.17;99800.31;4944442;28;20039;-74
2021/07/31 05:12:54;;;;;;;6.15;4.53;;;;;;;19.62;63.15;99806.47;4946633;29;20043;-74
2021/07/31 05:15:19;;;;;;;5.47;4.32;;;;;;;19.63;63.01;99800.16;4945380;28;20071;-74
2021/07/31 05:17:45;;;;;;;6.43;4.63;;;;;;;19.65;63.41;99806.28;4944398;28;20040;-73
2021/07/31 05:20:10;;;;;;;7.40;4.25;;;;;;;19.70;62.74;99809.59;4946599;28;20391;-73
2021/07/31 05:22:36;;;;;;;6.80;4.30;;;;;;;19.82;62.64;99807.19;4945626;29;20742;-73
2021/07/31 05:25:03;;;;;;;5.90;4.22;;;;;;;19.89;62.48;99813.94;4943973;28;20031;-73
2021/07/31 05:27:28;;;;;;;5.65;4.20;;;;;;;19.97;62.15;99813.50;4945940;28;20031;-73
2021/07/31 05:29:53;;;;;;;5.53;4.20;;;;;;;19.95;62.29;99808.22;4945644;29;20247;-74
2021/07/31 05:32:19;;;;;;;6.97;4.22;;;;;;;20.00;61.37;99806.16;4944022;28;20048;-73
2021/07/31 05:34:44;;;;;;;5.38;3.95;;;;;;;20.03;61.23;99805.97;4946031;28;20039;-73
2021/07/31 05:37:09;;;;;;;5.95;4.10;;;;;;;20.08;60.83;99805.72;4944318;28;20050;-74
2021/07/31 05:39:35;;;;;;;7.45;4.07;;;;;;;20.10;61.44;99810.03;4956487;28;20035;-74
2021/07/31 05:42:05;;;;;;;7.32;4.22;;;;;;;20.11;60.79;99809.06;4947119;28;20032;-74
2021/07/31 05:44:32;;;;;;;7.70;4.10;;;;;;;20.19;60.78;99811.31;4957577;28;20027;-73
2021/07/31 05:46:57;;;;;;;6.32;4.38;;;;;;;20.23;60.24;99806.66;4947799;28;20031;-73
2021/07/31 05:49:23;;;;;;;6.60;3.80;;;;;;;20.26;59.88;99810.00;4945318;28;20043;-73
2021/07/31 05:51:48;;;;;;;6.25;4.32;;;;;;;20.35;59.41;99805.94;4950841;28;20044;-74
2021/07/31 05:54:13;;;;;;;7.10;3.90;;;;;;;20.32;59.92;99816.81;4946907;28;20077;-73
2021/07/31 05:56:41;;;;;;;6.53;4.07;;;;;;;20.40;59.85;99814.56;4944608;29;20039;-74
2021/07/31 05:59:06;;;;;;;6.35;3.92;;;;;;;20.49;59.85;99816.72;4943970;28;20439;-73
2021/07/31 06:01:35;;;;;;;4.78;3.40;;;;;;;20.55;59.43;99813.72;4946733;29;20027;-73
2021/07/31 06:04:01;;;;;;;7.38;3.78;;;;;;;20.64;59.35;99823.00;4953609;28;20047;-73
2021/07/31 06:06:26;;;;;;;6.20;3.72;;;;;;;20.73;59.05;99818.94;4952839;28;20023;-73
2021/07/31 06:08:52;;;;;;;9.02;3.92;;;;;;;20.77;58.65;99821.31;4949407;28;20118;-74
2021/07/31 06:11:17;;;;;;;8.00;3.72;;;;;;;20.83;58.89;99821.91;4951443;28;20113;-74
2021/07/31 06:13:42;;;;;;;5.80;3.72;;;;;;;20.95;57.65;99819.38;4946303;28;20035;-74
2021/07/31 06:16:09;;;;;;;7.28;3.42;;;;;;;20.99;57.08;99810.19;4956298;28;20105;-74
2021/07/31 06:18:37;;;;;;;5.00;3.58;;;;;;;21.11;58.19;99816.63;4945638;28;20505;-74
2021/07/31 06:21:05;;;;;;;6.63;3.00;;;;;;;21.18;56.42;99812.59;4957150;28;20084;-73
2021/07/31 06:23:30;;;;;;;5.25;3.00;;;;;;;21.23;54.32;99817.69;4944901;29;20031;-73
2021/07/31 06:26:00;;;;;;;6.75;2.38;;;;;;;21.17;53.86;99816.25;4954948;28;20074;-74
2021/07/31 06:28:25;;;;;;;6.05;2.20;;;;;;;21.21;52.42;99816.91;4948823;29;20585;-74
2021/07/31 06:30:51;;;;;;;5.55;2.58;;;;;;;21.22;52.22;99813.25;4954193;28;20130;-73
2021/07/31 06:33:16;;;;;;;4.72;2.17;;;;;;;21.30;51.76;99818.16;4949155;28;20441;-74
2021/07/31 06:35:41;;;;;;;8.68;2.05;;;;;;;21.33;51.00;99818.84;4948179;28;20062;-73
2021/07/31 06:38:07;;;;;;;4.55;2.13;;;;;;;21.37;50.92;99828.44;4949638;28;20038;-74
2021/07/31 06:40:32;;;;;;;23.20;3.67;;;;;;;21.41;51.21;99819.28;4942245;28;20091;-74
2021/07/31 06:42:58;;;;;;;5.28;2.55;;;;;;;21.54;51.68;99815.81;4945316;29;20035;-73
2021/07/31 06:45:25;;;;;;;5.93;2.20;;;;;;;21.58;50.94;99815.50;4945324;29;20082;-73
2021/07/31 06:47:50;;;;;;;5.22;2.28;;;;;;;21.67;51.61;99820.31;4942915;28;20044;-73
2021/07/31 06:50:15;;;;;;;5.97;2.80;;;;;;;21.70;51.82;99810.34;4945165;29;20043;-74
2021/07/31 06:52:40;;;;;;;4.15;2.22;;;;;;;21.66;51.35;99807.84;4943727;29;20051;-73
2021/07/31 06:55:06;;;;;;;6.95;2.58;;;;;;;21.71;51.46;99809.38;4942626;28;20035;-73
2021/07/31 06:57:32;;;;;;;4.75;2.13;;;;;;;21.73;50.17;99813.69;4945096;29;20642;-73
2021/07/31 06:59:57;;;;;;;5.32;2.28;;;;;;;21.75;50.17;99811.78;4943543;29;20032;-74
2021/07/31 07:02:22;;;;;;;6.20;2.20;;;;;;;21.78;48.95;99813.41;4942823;29;20044;-74
2021/07/31 07:04:48;;;;;;;6.47;2.05;;;;;;;21.76;48.08;99810.81;4944716;28;20039;-73
2021/07/31 07:07:19;;;;;;;5.10;1.60;;;;;;;21.76;48.35;99808.13;4943688;29;20079;-74
2021/07/31 07:09:44;;;;;;;4.77;2.07;;;;;;;21.88;48.13;99807.34;4942494;28;20039;-73
2021/07/31 07:12:09;;;;;;;4.60;1.88;;;;;;;21.92;47.54;99812.50;4944592;28;20097;-74
2021/07/31 07:14:35;;;;;;;4.55;1.63;;;;;;;22.03;46.75;99797.44;4943434;29;20069;-74
2021/07/31 07:17:04;;;;;;;3.92;1.40;;;;;;;21.93;45.22;99811.53;4942459;28;20118;-74
2021/07/31 07:19:29;;;;;;;3.45;1.30;;;;;;;22.02;44.93;99803.75;4944017;28;20118;-73
2021/07/31 07:21:55;;;;;;;5.68;1.70;;;;;;;22.08;46.13;99799.78;4944370;29;20045;-74
2021/07/31 07:24:20;;;;;;;3.65;1.58;;;;;;;22.22;43.64;99801.63;4942211;28;20051;-74
2021/07/31 07:26:45;;;;;;;3.67;1.17;;;;;;;22.20;44.30;99796.34;4944189;28;20047;-74
2021/07/31 07:29:11;;;;;;;4.68;1.40;;;;;;;22.32;44.18;99794.66;4943993;29;20049;-74
2021/07/31 07:31:36;;;;;;;5.10;1.15;;;;;;;22.26;42.20;99785.16;4942314;28;20083;-73
2021/07/31 07:34:01;;;;;;;2.95;1.20;;;;;;;22.29;43.05;99790.34;4944110;28;20040;-74
2021/07/31 07:36:27;;;;;;;5.20;1.42;;;;;;;22.29;42.62;99801.09;4943704;29;20039;-73
2021/07/31 07:38:52;;;;;;;5.97;1.30;;;;;;;22.35;42.90;99793.59;4942204;28;20407;-74
2021/07/31 07:41:18;;;;;;;3.90;1.20;;;;;;;22.39;42.41;99790.59;4944334;28;20490;-74
2021/07/31 07:43:44;;;;;;;5.30;1.10;;;;;;;22.42;42.06;99794.91;4943720;29;20031;-74
2021/07/31 07:46:14;;;;;;;4.32;1.52;;;;;;;22.53;42.08;99792.34;4941842;28;20042;-74
2021/07/31 07:48:40;;;;;;;4.30;1.42;;;;;;;22.61;41.69;99790.03;4943428;28;20044;-74
2021/07/31 07:51:06;;;;;;;4.22;1.60;;;;;;;22.70;40.84;99800.16;4945591;29;20039;-74
2021/07/31 07:53:31;;;;;;;2.38;0.90;;;;;;;22.67;41.97;99789.59;4945785;28;20106;-74
2021/07/31 07:55:56;;;;;;;6.75;1.13;;;;;;;22.75;41.99;99789.06;4945672;28;20031;-74
2021/07/31 07:58:22;;;;;;;3.78;1.17;;;;;;;22.80;42.40;99786.94;4947951;29;20156;-74
2021/07/31 08:00:48;;;;;;;5.32;1.50;;;;;;;22.85;41.77;99794.69;4945784;28;20402;-73
2021/07/31 08:03:14;;;;;;;5.78;1.45;;;;;;;22.94;41.44;99791.34;4947135;29;20027;-74
2021/07/31 08:05:39;;;;;;;5.20;1.55;;;;;;;22.92;40.40;99787.91;4947746;29;20039;-74
2021/07/31 08:08:05;;;;;;;4.45;1.35;;;;;;;22.95;40.67;99771.53;4945645;28;20046;-74
2021/07/31 08:10:31;;;;;;;4.35;1.30;;;;;;;22.94;40.16;99772.53;4946875;28;20035;-74
2021/07/31 08:12:57;;;;;;;7.68;1.48;;;;;;;22.92;40.66;99787.91;4947818;29;20028;-73
2021/07/31 08:15:22;;;;;;;4.53;1.55;;;;;;;23.03;39.28;99785.38;4967759;23;20453;-82
2021/07/31 08:17:47;;;;;;;4.65;1.42;;;;;;;23.11;39.31;99774.09;4971312;28;20046;-82
2021/07/31 08:20:13;;;;;;;5.45;1.20;;;;;;;23.16;39.03;99769.22;4967525;28;20037;-82
2021/07/31 08:22:38;;;;;;;4.70;1.45;;;;;;;23.27;40.13;99773.88;4971626;28;20034;-82
2021/07/31 08:25:04;;;;;;;2.65;1.40;;;;;;;23.41;39.66;99768.34;4969735;28;20031;-82
2021/07/31 08:27:29;;;;;;;3.58;1.10;;;;;;;23.40;39.58;99758.56;4951280;29;20070;-82
2021/07/31 08:29:54;;;;;;;4.38;1.30;;;;;;;23.54;40.29;99758.41;4971104;28;20038;-82
2021/07/31 08:32:20;;;;;;;6.55;1.35;;;;;;;23.74;38.58;99765.09;4968293;28;20039;-82
2021/07/31 08:34:45;;;;;;;4.32;1.35;;;;;;;23.83;39.26;99763.53;4934068;29;20059;-82
2021/07/31 08:37:11;;;;;;;5.80;1.10;;;;;;;23.82;38.29;99772.59;4969674;28;20058;-82
2021/07/31 08:39:37;;;;;;;4.38;1.33;;;;;;;23.81;37.67;99760.09;4951447;28;20046;-81
2021/07/31 08:42:05;;;;;;;5.90;1.33;;;;;;;23.89;38.64;99770.31;4977708;28;20046;-82
2021/07/31 08:44:33;;;;;;;3.67;1.30;;;;;;;23.95;37.76;99759.09;4950520;28;20059;-82
2021/07/31 08:47:02;;;;;;;5.53;1.23;;;;;;;24.01;37.70;99762.19;4950242;29;20046;-81
2021/07/31 08:49:28;;;;;;;4.03;1.10;;;;;;;23.94;37.69;99766.28;4966461;28;20031;-82
2021/07/31 08:51:56;;;;;;;3.28;1.00;;;;;;;23.98;37.50;99756.16;4970829;28;20153;-81
2021/07/31 08:54:22;;;;;;;4.65;1.23;;;;;;;24.18;38.55;99760.03;4951026;28;20422;-82
2021/07/31 08:56:47;;;;;;;5.10;1.00;;;;;;;24.49;37.46;99755.94;4970705;28;20039;-82
2021/07/31 08:59:12;;;;;;;4.05;1.10;;;;;;;24.59;37.29;99762.34;4967935;28;20108;-82
2021/07/31 09:01:38;;;;;;;3.70;1.17;;;;;;;24.51;36.92;99769.31;4971061;28;20496;-82
2021/07/31 09:04:15;;;;;;;2.78;1.35;;;;;;;24.49;37.11;99767.56;4966445;28;20031;-81
2021/07/31 09:06:42;;;;;;;3.47;1.10;;;;;;;24.23;36.32;99765.97;4971335;28;20421;-82
2021/07/31 09:09:07;;;;;;;7.35;1.75;;;;;;;24.29;37.20;99768.22;4954342;28;20050;-82
2021/07/31 09:11:33;;;;;;;4.28;1.02;;;;;;;24.48;37.59;99760.47;4969343;28;20094;-82
2021/07/31 09:14:15;;;;;;;4.93;1.42;;;;;;;24.66;37.40;99762.75;4949363;29;20054;-82
2021/07/31 09:16:42;;;;;;;5.18;1.25;;;;;;;24.91;36.58;99754.44;4966269;28;20066;-82
2021/07/31 09:19:09;;;;;;;8.07;1.25;;;;;;;24.84;37.16;99755.06;4970554;28;20543;-82
2021/07/31 09:21:35;;;;;;;3.58;1.27;;;;;;;24.86;36.88;99767.47;4947618;29;20125;-82
2021/07/31 09:24:01;;;;;;;5.15;1.30;;;;;;;24.72;36.38;99759.56;4951075;28;20070;-82
2021/07/31 09:26:37;;;;;;;3.80;1.27;;;;;;;24.62;35.62;99772.03;4970321;28;20438;-82
2021/07/31 09:29:12;;;;;;;3.45;1.10;;;;;;;24.61;36.55;99759.53;4969713;28;20047;-82
2021/07/31 09:31:54;;;;;;;3.35;1.13;;;;;;;24.64;36.34;99754.75;4966913;28;20479;-82
2021/07/31 09:34:34;;;;;;;6.10;1.40;;;;;;;24.93;36.62;99744.38;4968737;28;20067;-82
2021/07/31 09:37:07;;;;;;;7.30;1.20;;;;;;;24.99;36.16;99747.59;4950219;29;20128;-82
2021/07/31 09:39:52;;;;;;;7.07;1.10;;;;;;;24.93;35.40;99760.59;4950419;28;20379;-82
2021/07/31 09:42:35;;;;;;;5.63;1.30;;;;;;;24.82;35.03;99760.56;4949788;29;20039;-82
2021/07/31 09:45:09;;;;;;;6.57;1.35;;;;;;;24.92;35.84;99756.19;4968440;28;20122;-82
2021/07/31 09:47:35;;;;;;;4.70;1.00;;;;;;;24.88;35.74;99756.53;4966047;28;20035;-82
2021/07/31 09:50:01;;;;;;;5.72;1.63;;;;;;;24.95;34.76;99748.81;4949115;28;20043;-82
2021/07/31 09:52:27;;;;;;;18.75;1.33;;;;;;;25.07;35.54;99746.03;4969845;28;20582;-82
2021/07/31 09:54:57;;;;;;;5.32;1.10;;;;;;;25.05;34.52;99756.06;4967361;28;20038;-82
2021/07/31 09:57:27;;;;;;;2.80;1.10;;;;;;;24.80;34.50;99761.66;4970299;28;20449;-83
2021/07/31 09:59:55;;;;;;;4.55;0.95;;;;;;;24.89;34.91;99756.41;4966836;28;20636;-82
2021/07/31 10:02:21;;;;;;;4.57;1.20;;;;;;;24.99;35.00;99761.94;4970185;28;20058;-82
2021/07/31 10:04:48;;;;;;;9.27;1.65;;;;;;;24.86;34.94;99759.38;4966601;28;20039;-81
2021/07/31 10:07:15;;;;;;;9.18;1.30;;;;;;;24.67;35.38;99759.91;4969699;28;20039;-82
2021/07/31 10:09:42;;;;;;;9.50;1.20;;;;;;;24.81;35.45;99761.56;4967517;28;20642;-82
2021/07/31 10:12:10;;;;;;;3.97;1.05;;;;;;;24.70;35.73;99740.78;4968252;28;20121;-82
2021/07/31 10:14:35;;;;;;;2.67;0.90;;;;;;;24.73;36.16;99747.78;4964837;28;20047;-82
2021/07/31 10:17:01;;;;;;;2.75;0.90;;;;;;;24.83;35.81;99738.00;4935264;28;20038;-82
2021/07/31 10:19:26;;;;;;;8.90;1.17;;;;;;;24.96;35.15;99764.03;4967751;28;20039;-82
2021/07/31 10:22:00;;;;;;;6.22;1.40;;;;;;;25.04;34.83;99742.69;4968519;28;20034;-82
2021/07/31 10:24:26;;;;;;;2.50;1.23;;;;;;;24.99;35.11;99739.50;4968362;28;20114;-82
2021/07/31 10:27:16;;;;;;;8.57;1.10;;;;;;;25.11;34.95;99752.03;4949554;28;20145;-82
2021/07/31 10:29:46;;;;;;;4.57;1.00;;;;;;;25.29;33.76;99755.16;4967383;28;20474;-82
2021/07/31 10:32:20;;;;;;;5.20;1.10;;;;;;;25.27;34.29;99749.84;4967009;28;20039;-82
2021/07/31 10:34:49;;;;;;;3.25;0.90;;;;;;;25.48;33.92;99751.81;4932034;28;20042;-82
2021/07/31 10:37:34;;;;;;;2.70;0.98;;;;;;;25.74;34.15;99750.56;4972119;28;20037;-81
2021/07/31 10:40:02;;;;;;;4.78;1.00;;;;;;;25.80;33.63;99750.03;4951355;28;20493;-82
2021/07/31 10:42:46;;;;;;;7.10;1.58;;;;;;;25.62;33.39;99756.09;4966565;28;20178;-82
2021/07/31 10:45:17;;;;;;;3.90;1.17;;;;;;;25.81;33.11;99745.53;4967188;28;20042;-82
2021/07/31 10:47:51;;;;;;;9.40;1.38;;;;;;;26.05;32.48;99742.66;4949546;28;20041;-82
2021/07/31 10:50:22;;;;;;;3.20;1.25;;;;;;;26.46;32.32;99759.94;4967736;28;20041;-82
2021/07/31 10:52:57;;;;;;;4.93;1.10;;;;;;;26.71;32.35;99752.50;4964338;28;20093;-82
2021/07/31 10:55:37;;;;;;;3.22;1.20;;;;;;;27.09;31.54;99743.72;4950183;28;20039;-82
2021/07/31 10:58:16;;;;;;;6.70;1.20;;;;;;;27.30;30.26;99759.97;4964243;28;20421;-81
2021/07/31 11:00:46;;;;;;;3.67;0.90;;;;;;;27.25;30.56;99759.56;4955063;28;20047;-82
2021/07/31 11:03:14;;;;;;;2.70;1.10;;;;;;;27.09;30.70;99754.56;4956303;28;20038;-82
2021/07/31 11:05:51;;;;;;;5.45;1.08;;;;;;;27.15;30.09;99751.34;4967201;28;20097;-82
2021/07/31 11:08:30;;;;;;;2.90;1.13;;;;;;;27.60;30.15;99764.53;4948197;29;20047;-83
2021/07/31 11:10:57;;;;;;;5.38;1.20;;;;;;;27.41;29.83;99770.75;4965703;28;20122;-82
2021/07/31 11:13:23;;;;;;;6.28;1.42;;;;;;;27.46;29.38;99762.22;4949542;28;20030;-82
2021/07/31 11:16:13;;;;;;;5.50;1.10;;;;;;;27.53;29.98;99753.38;4949208;28;20043;-82
2021/07/31 11:18:39;;;;;;;5.38;1.00;;;;;;;27.24;30.29;99763.25;4949276;28;20039;-82
2021/07/31 11:21:16;;;;;;;6.85;1.30;;;;;;;27.39;30.55;99761.88;4967222;28;20093;-82
2021/07/31 11:23:43;;;;;;;3.13;1.10;;;;;;;27.21;29.67;99748.13;4947399;29;20031;-82
2021/07/31 11:26:08;;;;;;;4.10;1.40;;;;;;;27.33;29.67;99748.91;4967608;28;20050;-82
2021/07/31 11:28:36;;;;;;;3.67;1.42;;;;;;;27.43;29.31;99757.94;4966013;28;20022;-82
2021/07/31 11:31:14;;;;;;;5.07;1.27;;;;;;;27.27;29.51;99749.41;4964034;28;20045;-82
2021/07/31 11:33:40;;;;;;;2.75;1.20;;;;;;;27.61;29.77;99749.13;4965031;28;20410;-82
2021/07/31 11:36:12;;;;;;;5.03;1.67;;;;;;;27.52;29.14;99757.09;4967716;28;20035;-82